Time;durP1;ratioP1;P1;durP2;ratioP2;P2;SDS_P1;SDS_P2;PMS_P1;PMS_P2;Temp;Humidity;BMP_temperature;BMP_pressure;BME280_temperature;BME280_humidity;BME280_pressure;Samples;Min_cycle;Max_cycle;Signal;HPM_P1;HPM_P2
2023/05/23 00:02:15;;;;;;;40.95;21.73;;;;;;;15.66;88.57;101478.63;5010856;28;20050;-64
2023/05/23 00:04:43;;;;;;;40.60;21.50;;;;;;;15.65;88.40;101468.66;5014490;28;20046;-64
2023/05/23 00:07:10;;;;;;;40.15;20.23;;;;;;;15.61;89.09;101485.19;5015530;28;20050;-63
2023/05/23 00:09:38;;;;;;;33.70;20.58;;;;;;;15.58;89.27;101479.47;5014890;28;20058;-63
2023/05/23 00:12:05;;;;;;;42.97;21.88;;;;;;;15.54;89.93;101472.91;5012754;28;20057;-63
2023/05/23 00:14:34;;;;;;;38.83;20.27;;;;;;;15.52;89.82;101473.25;5012010;28;20054;-63
2023/05/23 00:17:01;;;;;;;44.05;20.73;;;;;;;15.49;88.93;101471.13;5015776;28;20405;-64
2023/05/23 00:19:29;;;;;;;36.65;19.88;;;;;;;15.57;88.63;101470.31;5014324;28;20386;-64
2023/05/23 00:21:57;;;;;;;43.47;20.02;;;;;;;15.45;88.67;101474.88;5015544;28;20061;-63
2023/05/23 00:24:26;;;;;;;39.75;19.67;;;;;;;15.31;89.85;101469.47;5014962;28;20042;-64
2023/05/23 00:26:53;;;;;;;39.22;19.60;;;;;;;15.25;90.09;101458.88;5029730;28;20062;-64
2023/05/23 00:29:20;;;;;;;37.95;18.80;;;;;;;15.23;89.96;101458.38;5015315;28;20496;-64
2023/05/23 00:31:48;;;;;;;36.03;18.63;;;;;;;15.50;88.75;101450.53;5013923;28;20053;-64
2023/05/23 00:34:19;;;;;;;41.92;19.23;;;;;;;15.31;88.56;101454.78;5029824;28;20041;-64
2023/05/23 00:36:46;;;;;;;38.67;19.33;;;;;;;15.17;89.75;101457.72;5014117;28;20041;-62
2023/05/23 00:39:18;;;;;;;38.05;18.50;;;;;;;15.37;88.46;101453.47;5013713;28;20440;-65
2023/05/23 00:41:50;;;;;;;32.95;18.02;;;;;;;15.45;88.07;101469.34;5009364;28;20058;-64
2023/05/23 00:44:20;;;;;;;30.50;17.27;;;;;;;15.43;87.74;101474.41;5010238;28;20046;-63
2023/05/23 00:46:51;;;;;;;35.47;20.02;;;;;;;15.26;88.12;101468.81;4997256;28;20054;-63
2023/05/23 00:49:20;;;;;;;37.97;18.95;;;;;;;15.07;89.05;101460.81;4997002;28;20050;-63
2023/05/23 00:51:50;;;;;;;40.10;19.17;;;;;;;15.15;88.84;101478.63;4998499;28;20049;-63
2023/05/23 00:54:23;;;;;;;28.23;17.92;;;;;;;15.14;88.72;101480.56;4996827;28;20050;-64
2023/05/23 00:56:51;;;;;;;36.38;18.52;;;;;;;14.69;90.89;101465.34;5008087;28;20061;-63
2023/05/23 00:59:20;;;;;;;32.13;18.42;;;;;;;14.63;90.29;101458.28;4986163;28;20450;-63
2023/05/23 01:01:49;;;;;;;34.33;16.80;;;;;;;14.90;89.15;101468.31;4980557;28;20064;-63
2023/05/23 01:04:18;;;;;;;33.13;17.02;;;;;;;15.15;87.84;101461.97;5029425;28;20053;-64
2023/05/23 01:06:47;;;;;;;27.17;16.67;;;;;;;15.21;87.12;101466.22;5013274;28;20058;-63
2023/05/23 01:09:15;;;;;;;35.80;17.88;;;;;;;15.05;86.18;101463.09;5012327;28;20069;-63
2023/05/23 01:12:20;;;;;;;29.20;17.20;;;;;;;14.85;87.33;101457.38;5028260;28;20061;-63
2023/05/23 01:15:12;;;;;;;25.63;16.02;;;;;;;14.90;87.30;101463.59;4996714;28;20066;-64
2023/05/23 01:17:58;;;;;;;34.60;17.75;;;;;;;14.80;87.93;101454.75;5012230;28;20054;-63
2023/05/23 01:20:31;;;;;;;32.08;17.60;;;;;;;14.81;87.28;101462.75;4992851;28;20050;-63
2023/05/23 01:23:20;;;;;;;27.60;17.35;;;;;;;14.82;87.41;101472.69;4993460;28;20050;-63
2023/05/23 01:25:59;;;;;;;33.70;18.08;;;;;;;14.71;88.09;101471.38;4994725;28;20057;-63
2023/05/23 01:28:31;;;;;;;27.13;18.17;;;;;;;14.66;88.65;101471.53;5013617;28;20058;-64
2023/05/23 01:31:01;;;;;;;31.75;18.13;;;;;;;14.59;89.57;101473.94;5012881;28;20058;-64
2023/05/23 01:33:31;;;;;;;31.42;18.42;;;;;;;14.68;88.68;101474.78;4996341;28;20050;-64
2023/05/23 01:36:02;;;;;;;33.28;18.42;;;;;;;14.55;89.55;101484.88;5014206;28;20057;-63
2023/05/23 01:38:29;;;;;;;32.20;18.08;;;;;;;14.44;90.68;101479.91;4995002;28;20058;-65
2023/05/23 01:40:57;;;;;;;29.50;19.17;;;;;;;14.44;90.01;101482.69;4994266;28;20415;-64
2023/05/23 01:43:24;;;;;;;31.73;18.38;;;;;;;14.25;92.10;101474.59;5009507;28;20058;-64
2023/05/23 01:45:53;;;;;;;30.63;18.75;;;;;;;14.37;91.86;101483.16;5012369;28;20524;-64
2023/05/23 01:48:20;;;;;;;35.17;18.85;;;;;;;14.42;90.63;101477.47;5013053;28;20042;-64
2023/05/23 01:50:48;;;;;;;35.88;19.23;;;;;;;14.37;91.39;101493.41;5013913;28;20046;-64
2023/05/23 01:53:19;;;;;;;28.35;18.40;;;;;;;14.54;90.75;101491.53;5013023;28;20069;-64
2023/05/23 01:55:46;;;;;;;38.35;20.02;;;;;;;14.62;90.02;101487.16;5012411;28;20049;-63
2023/05/23 01:58:14;;;;;;;31.50;17.83;;;;;;;14.77;89.04;101491.47;5012447;28;20062;-64
2023/05/23 02:00:41;;;;;;;36.03;19.70;;;;;;;14.49;89.91;101490.84;4996017;28;20497;-63
2023/05/23 02:03:10;;;;;;;33.83;18.95;;;;;;;14.39;91.58;101480.06;4995937;28;20049;-63
2023/05/23 02:05:38;;;;;;;33.15;19.42;;;;;;;14.51;91.31;101485.81;5013511;28;20050;-64
2023/05/23 02:08:06;;;;;;;35.05;19.70;;;;;;;14.22;91.73;101479.97;5013986;28;20711;-63
2023/05/23 02:10:33;;;;;;;34.55;19.42;;;;;;;14.39;92.19;101474.53;5027418;28;20054;-64
2023/05/23 02:13:01;;;;;;;29.23;19.52;;;;;;;14.46;91.59;101481.25;4988121;28;20050;-63
2023/05/23 02:15:28;;;;;;;35.20;20.15;;;;;;;14.47;90.84;101482.88;5000107;28;20050;-63
2023/05/23 02:17:57;;;;;;;36.38;19.83;;;;;;;14.49;90.82;101472.28;4992206;28;20156;-63
2023/05/23 02:20:25;;;;;;;36.22;19.83;;;;;;;14.51;90.49;101485.81;4995498;28;20461;-63
2023/05/23 02:22:53;;;;;;;31.17;20.38;;;;;;;14.22;92.63;101499.38;5012026;28;20873;-63
2023/05/23 02:25:21;;;;;;;36.53;20.08;;;;;;;14.18;93.18;101487.28;4995514;28;20050;-63
2023/05/23 02:27:48;;;;;;;33.45;18.60;;;;;;;14.41;91.98;101480.56;5013136;28;20038;-63
2023/05/23 02:30:15;;;;;;;35.45;20.92;;;;;;;14.27;92.68;101490.94;4995656;28;20420;-63
2023/05/23 02:32:43;;;;;;;31.52;19.80;;;;;;;14.28;92.51;101478.72;4996160;28;20064;-63
2023/05/23 02:35:11;;;;;;;32.97;20.35;;;;;;;14.30;92.64;101481.97;4997054;28;20046;-63
2023/05/23 02:37:38;;;;;;;34.13;22.20;;;;;;;14.30;92.35;101487.53;5012435;28;20046;-64
2023/05/23 02:40:06;;;;;;;41.17;21.13;;;;;;;14.47;91.96;101493.16;4995142;28;20064;-66
2023/05/23 02:42:35;;;;;;;40.30;22.63;;;;;;;14.50;91.92;101496.09;4995585;28;20050;-63
2023/05/23 02:45:03;;;;;;;33.88;20.83;;;;;;;14.54;91.18;101497.06;5016053;28;20382;-63
2023/05/23 02:47:30;;;;;;;36.75;21.00;;;;;;;14.47;91.78;101488.41;4999775;28;20049;-63
2023/05/23 02:49:57;;;;;;;40.00;20.92;;;;;;;14.41;92.22;101484.16;5032188;28;20516;-63
2023/05/23 02:52:25;;;;;;;36.05;21.55;;;;;;;14.40;92.43;101476.19;5015533;28;20391;-63
2023/05/23 02:54:52;;;;;;;37.05;21.13;;;;;;;14.38;92.54;101476.47;5027630;28;20052;-63
2023/05/23 02:57:20;;;;;;;38.13;21.80;;;;;;;14.15;93.62;101482.38;5015587;28;20050;-63
2023/05/23 02:59:48;;;;;;;34.33;22.42;;;;;;;13.91;95.11;101488.28;4999494;28;20049;-63
2023/05/23 03:02:15;;;;;;;35.78;22.55;;;;;;;13.90;95.73;101494.94;4999013;28;20068;-62
2023/05/23 03:04:43;;;;;;;38.35;22.20;;;;;;;13.73;97.32;101491.25;4998335;28;20061;-62
2023/05/23 03:07:11;;;;;;;41.38;21.73;;;;;;;13.91;96.10;101495.78;5016765;28;20061;-64
2023/05/23 03:09:55;;;;;;;38.45;23.02;;;;;;;13.69;96.90;101504.06;5014255;28;20046;-63
2023/05/23 03:12:22;;;;;;;37.30;22.25;;;;;;;13.67;96.98;101509.13;5005075;28;20528;-63
2023/05/23 03:14:50;;;;;;;41.30;21.77;;;;;;;13.66;96.89;101499.19;4999164;28;20049;-62
2023/05/23 03:17:17;;;;;;;36.42;21.45;;;;;;;13.51;97.97;101498.41;5009476;28;20065;-64
2023/05/23 03:19:45;;;;;;;41.42;22.35;;;;;;;13.46;98.38;101501.31;5015525;28;20050;-63
2023/05/23 03:22:12;;;;;;;39.25;21.35;;;;;;;13.52;98.47;101502.03;4998645;28;20054;-62
2023/05/23 03:24:41;;;;;;;36.75;22.48;;;;;;;13.28;99.72;101507.84;4997646;28;20058;-62
2023/05/23 03:27:10;;;;;;;41.53;24.60;;;;;;;13.31;99.90;101504.47;4998729;28;20053;-63
2023/05/23 03:29:37;;;;;;;40.90;24.67;;;;;;;13.34;100.00;101506.59;5014176;28;20065;-63
2023/05/23 03:32:05;;;;;;;43.30;24.70;;;;;;;13.28;100.00;101515.34;5015340;28;20057;-64
2023/05/23 03:34:34;;;;;;;41.35;24.02;;;;;;;13.25;100.00;101514.00;5014947;28;20050;-65
2023/05/23 03:37:03;;;;;;;40.95;24.33;;;;;;;13.12;100.00;101512.09;5016123;28;20057;-62
2023/05/23 03:39:30;;;;;;;45.88;25.98;;;;;;;13.19;100.00;101520.78;4995208;28;20038;-63
2023/05/23 03:41:57;;;;;;;50.92;25.70;;;;;;;13.11;100.00;101532.56;4978852;28;20065;-64
2023/05/23 03:44:25;;;;;;;46.40;26.02;;;;;;;13.02;100.00;101537.19;4994194;28;20050;-62
2023/05/23 03:46:52;;;;;;;46.35;27.38;;;;;;;13.08;100.00;101532.38;5016118;28;20062;-64
2023/05/23 03:49:20;;;;;;;50.72;28.05;;;;;;;13.01;100.00;101530.00;5016215;28;20046;-64
2023/05/23 03:51:47;;;;;;;45.45;26.00;;;;;;;13.10;100.00;101528.19;5014927;28;20060;-63
2023/05/23 03:54:16;;;;;;;46.53;25.05;;;;;;;13.22;100.00;101528.47;5030176;28;20610;-63
2023/05/23 03:56:44;;;;;;;42.20;25.38;;;;;;;13.22;100.00;101535.94;4997446;28;20503;-63
2023/05/23 03:59:12;;;;;;;38.60;24.17;;;;;;;13.09;100.00;101532.06;5031113;28;20068;-64
2023/05/23 04:01:40;;;;;;;48.40;24.73;;;;;;;12.88;100.00;101533.63;4997500;28;20053;-63
2023/05/23 04:04:07;;;;;;;50.55;25.70;;;;;;;12.89;100.00;101534.41;4997698;28;20050;-63
2023/05/23 04:06:37;;;;;;;49.10;24.90;;;;;;;13.03;100.00;101540.78;5014237;28;20058;-65
2023/05/23 04:09:05;;;;;;;41.03;24.90;;;;;;;13.24;100.00;101545.56;5009331;28;20418;-63
2023/05/23 04:11:37;;;;;;;40.60;22.80;;;;;;;13.43;99.27;101543.47;4996614;28;20058;-64
2023/05/23 04:14:04;;;;;;;45.25;24.15;;;;;;;13.27;98.50;101539.41;4998070;28;20058;-62
2023/05/23 04:16:34;;;;;;;45.28;24.23;;;;;;;13.32;98.54;101546.75;4993166;28;20057;-63
2023/05/23 04:19:03;;;;;;;44.15;23.25;;;;;;;13.08;99.88;101555.31;4998636;28;20053;-62
2023/05/23 04:21:33;;;;;;;44.00;23.38;;;;;;;12.85;100.00;101552.78;5030095;28;20068;-63
2023/05/23 04:24:08;;;;;;;48.25;24.75;;;;;;;12.59;100.00;101549.69;4996188;28;20061;-62
2023/05/23 04:26:36;;;;;;;40.35;23.63;;;;;;;12.75;100.00;101559.31;4996733;28;20049;-63
2023/05/23 04:29:04;;;;;;;47.35;24.67;;;;;;;13.05;100.00;101547.66;4997041;28;20092;-64
2023/05/23 04:31:33;;;;;;;42.92;22.75;;;;;;;12.87;100.00;101553.25;5013756;28;20057;-62
2023/05/23 04:34:01;;;;;;;35.72;21.48;;;;;;;12.75;100.00;101555.72;4994420;28;20050;-62
2023/05/23 04:36:30;;;;;;;41.22;21.58;;;;;;;12.97;100.00;101556.63;4978054;28;20054;-62
2023/05/23 04:38:58;;;;;;;43.03;21.35;;;;;;;12.86;100.00;101565.47;5012469;28;20785;-62
2023/05/23 04:41:27;;;;;;;40.47;20.67;;;;;;;12.92;100.00;101565.03;4996589;28;20057;-63
2023/05/23 04:44:04;;;;;;;32.90;19.00;;;;;;;12.70;100.00;101564.94;5014844;28;20042;-63
2023/05/23 04:46:44;;;;;;;38.20;21.25;;;;;;;12.88;100.00;101579.81;5013637;28;20046;-64
2023/05/23 04:49:33;;;;;;;;;;;;;;;12.92;100.00;101564.25;4978583;28;20054;-63
2023/05/23 04:52:00;;;;;;;30.63;18.90;;;;;;;13.24;100.00;101559.41;4993537;28;19921;-63
2023/05/23 04:54:28;;;;;;;33.22;19.10;;;;;;;13.15;99.65;101564.03;4993603;28;20053;-62
2023/05/23 04:56:58;;;;;;;35.20;19.40;;;;;;;13.13;100.00;101559.91;5011214;28;20073;-63
2023/05/23 04:59:27;;;;;;;36.37;18.70;;;;;;;13.17;100.00;101566.47;4995506;28;20061;-63
2023/05/23 05:01:55;;;;;;;37.70;19.75;;;;;;;13.09;100.00;101562.47;5000731;28;20065;-64
2023/05/23 05:04:22;;;;;;;33.50;20.75;;;;;;;13.17;100.00;101556.25;4996647;28;20058;-65
2023/05/23 05:06:51;;;;;;;33.00;19.13;;;;;;;13.11;100.00;101564.97;5028829;28;20053;-63
2023/05/23 05:09:19;;;;;;;33.10;19.27;;;;;;;13.22;100.00;101563.59;5027553;28;20057;-63
2023/05/23 05:11:48;;;;;;;27.27;16.88;;;;;;;13.10;99.87;101571.59;5029094;28;20057;-62
2023/05/23 05:14:16;;;;;;;28.85;16.73;;;;;;;13.09;99.61;101584.63;4996048;28;20153;-62
2023/05/23 05:16:44;;;;;;;27.02;15.90;;;;;;;13.09;100.00;101578.28;5012922;28;20050;-63
2023/05/23 05:19:12;;;;;;;26.38;16.65;;;;;;;13.16;99.50;101579.47;5010144;28;20045;-64
2023/05/23 05:21:39;;;;;;;28.63;17.77;;;;;;;13.17;100.00;101569.25;5007111;28;20518;-64
2023/05/23 05:24:10;;;;;;;27.52;16.73;;;;;;;13.22;100.00;101569.97;4979712;28;20050;-63
2023/05/23 05:26:37;;;;;;;;;;;;;;;13.12;100.00;101574.88;5009539;28;20042;-63
2023/05/23 05:29:04;;;;;;;25.48;15.30;;;;;;;12.96;100.00;101579.06;5003333;28;20377;-63
2023/05/23 05:31:32;;;;;;;24.70;15.85;;;;;;;12.96;100.00;101579.06;5013633;28;20045;-63
2023/05/23 05:34:00;;;;;;;24.55;15.60;;;;;;;13.11;100.00;101589.84;5014346;28;20054;-64
2023/05/23 05:36:27;;;;;;;24.02;15.68;;;;;;;13.20;100.00;101580.50;5001276;28;20041;-63
2023/05/23 05:38:54;;;;;;;24.50;14.63;;;;;;;13.15;100.00;101577.03;5012622;28;20056;-63
2023/05/23 05:41:22;;;;;;;25.85;14.50;;;;;;;13.02;100.00;101580.66;4996310;28;20058;-63
2023/05/23 05:43:52;;;;;;;23.67;14.88;;;;;;;13.11;100.00;101579.59;4996621;28;20061;-63
2023/05/23 05:46:20;;;;;;;22.58;15.20;;;;;;;13.20;100.00;101586.03;5014225;28;20045;-63
2023/05/23 05:48:48;;;;;;;23.30;15.23;;;;;;;13.12;100.00;101581.25;5012461;28;20050;-63
2023/05/23 05:51:17;;;;;;;26.10;14.18;;;;;;;13.22;100.00;101589.31;4996172;28;20537;-64
2023/05/23 05:53:45;;;;;;;22.00;14.35;;;;;;;13.24;100.00;101583.47;4996691;28;20049;-63
2023/05/23 05:56:12;;;;;;;27.10;13.70;;;;;;;13.27;99.58;101585.63;5035248;28;20042;-64
2023/05/23 05:58:40;;;;;;;22.15;14.68;;;;;;;13.58;98.50;101587.38;5028916;28;20057;-63
2023/05/23 06:01:11;;;;;;;22.05;13.05;;;;;;;13.56;97.63;101603.47;5013237;28;20049;-63
2023/05/23 06:03:38;;;;;;;22.50;13.38;;;;;;;13.60;97.70;101600.91;5029035;28;20050;-62
2023/05/23 06:06:07;;;;;;;23.55;14.32;;;;;;;13.57;97.75;101604.31;5008884;28;20516;-66
2023/05/23 06:08:37;;;;;;;28.48;13.65;;;;;;;13.61;97.82;101598.97;5002919;28;20065;-64
2023/05/23 06:11:04;;;;;;;19.35;12.90;;;;;;;13.75;98.08;101595.03;4996393;28;20589;-64
2023/05/23 06:13:31;;;;;;;22.73;13.77;;;;;;;13.67;97.38;101609.59;5014283;28;20065;-64
2023/05/23 06:15:59;;;;;;;24.67;13.45;;;;;;;13.52;97.81;101596.94;5013118;28;20045;-66
2023/05/23 06:18:26;;;;;;;27.48;13.25;;;;;;;13.68;97.39;101593.81;5029392;28;20069;-63
2023/05/23 06:20:54;;;;;;;20.65;13.00;;;;;;;13.92;96.44;101602.66;5000947;28;20069;-64
2023/05/23 06:23:22;;;;;;;33.15;13.65;;;;;;;13.85;96.41;101600.31;5015884;28;20056;-64
2023/05/23 06:25:49;;;;;;;19.60;13.55;;;;;;;13.80;96.62;101600.44;5015403;28;20485;-64
2023/05/23 06:28:16;;;;;;;25.70;13.10;;;;;;;13.57;97.68;101609.84;5017335;28;20057;-63
2023/05/23 06:30:45;;;;;;;19.23;13.40;;;;;;;13.60;98.79;101606.44;5016233;28;20053;-64
2023/05/23 06:33:13;;;;;;;26.50;14.75;;;;;;;13.58;98.91;101606.75;5017473;28;20050;-64
2023/05/23 06:35:42;;;;;;;24.90;14.00;;;;;;;13.67;98.31;101606.03;4999124;28;20038;-63
2023/05/23 06:38:09;;;;;;;23.83;13.38;;;;;;;13.77;97.72;101597.47;4999678;28;20046;-64
2023/05/23 06:40:37;;;;;;;29.33;14.15;;;;;;;13.92;96.85;101608.19;5016554;28;20153;-63
2023/05/23 06:43:04;;;;;;;25.10;14.48;;;;;;;13.77;96.81;101609.38;5017377;28;20064;-63
2023/05/23 06:45:48;;;;;;;28.88;14.95;;;;;;;13.65;97.88;101616.59;5012118;28;20049;-64
2023/05/23 06:48:16;;;;;;;28.38;15.93;;;;;;;13.94;97.28;101619.78;4999096;28;20057;-63
2023/05/23 06:50:45;;;;;;;28.48;16.45;;;;;;;13.66;98.11;101618.22;5023862;28;20057;-63
2023/05/23 06:53:13;;;;;;;28.02;15.52;;;;;;;13.44;100.00;101639.19;5029325;28;20054;-62
2023/05/23 06:55:42;;;;;;;29.55;16.90;;;;;;;13.44;100.00;101633.66;5015559;28;20049;-63
2023/05/23 06:58:13;;;;;;;25.77;17.08;;;;;;;13.43;100.00;101629.25;5017357;28;20058;-63
2023/05/23 07:00:41;;;;;;;28.10;16.90;;;;;;;13.32;100.00;101627.00;5025782;28;20987;-64
2023/05/23 07:03:31;;;;;;;28.00;17.58;;;;;;;13.57;100.00;101635.59;5014443;28;20045;-63
2023/05/23 07:06:03;;;;;;;31.23;16.90;;;;;;;13.57;99.73;101637.53;5000949;28;20064;-61
2023/05/23 07:08:31;;;;;;;27.55;16.05;;;;;;;13.69;98.47;101643.34;5000903;28;20050;-63
2023/05/23 07:11:00;;;;;;;23.40;15.52;;;;;;;13.90;98.15;101638.97;5000072;28;20046;-63
2023/05/23 07:13:34;;;;;;;23.38;15.35;;;;;;;14.08;95.86;101648.25;4990215;28;20049;-63
2023/05/23 07:16:01;;;;;;;24.38;15.02;;;;;;;14.24;95.17;101647.53;4992788;28;20081;-63
2023/05/23 07:18:30;;;;;;;26.27;15.68;;;;;;;14.19;94.03;101649.63;4999836;28;20045;-63
2023/05/23 07:20:58;;;;;;;26.83;15.57;;;;;;;14.27;94.69;101657.22;4993932;28;20050;-65
2023/05/23 07:23:25;;;;;;;26.08;15.75;;;;;;;14.55;93.61;101656.75;4984780;28;20064;-63
2023/05/23 07:25:53;;;;;;;30.35;16.20;;;;;;;14.34;92.95;101654.81;4999004;28;20046;-62
2023/05/23 07:28:28;;;;;;;27.83;15.90;;;;;;;14.24;94.03;101657.81;5016095;28;20046;-65
2023/05/23 07:30:57;;;;;;;29.73;17.70;;;;;;;14.42;93.48;101654.88;5006237;28;20077;-68
2023/05/23 07:33:25;;;;;;;30.70;16.73;;;;;;;14.52;92.34;101654.59;4998921;28;20054;-64
2023/05/23 07:35:58;;;;;;;28.63;17.45;;;;;;;14.41;92.32;101671.81;4991066;28;20060;-64
2023/05/23 07:38:25;;;;;;;29.48;16.60;;;;;;;14.29;93.43;101672.41;4996591;28;20054;-62
2023/05/23 07:40:53;;;;;;;27.63;17.65;;;;;;;14.03;94.50;101665.81;5016614;28;20503;-61
2023/05/23 07:43:36;;;;;;;25.90;17.55;;;;;;;14.25;93.74;101671.34;5011078;28;20054;-65
2023/05/23 07:46:04;;;;;;;29.17;18.33;;;;;;;14.29;93.88;101671.56;5020351;28;20046;-64
2023/05/23 07:48:32;;;;;;;34.40;17.63;;;;;;;14.63;92.67;101671.78;4987914;28;20066;-65
2023/05/23 07:50:59;;;;;;;29.23;17.77;;;;;;;14.53;92.04;101674.84;5010644;28;20055;-64
2023/05/23 07:53:27;;;;;;;32.85;17.92;;;;;;;14.32;93.08;101682.03;4992000;28;20050;-64
2023/05/23 07:55:55;;;;;;;34.95;17.05;;;;;;;14.46;91.79;101683.59;4993730;28;20486;-63
2023/05/23 07:58:26;;;;;;;30.05;16.50;;;;;;;14.58;90.12;101685.78;4991914;28;20046;-64
2023/05/23 08:00:53;;;;;;;25.73;15.50;;;;;;;14.19;92.03;101682.88;4987733;28;20080;-64
2023/05/23 08:03:39;;;;;;;23.73;14.73;;;;;;;14.34;91.68;101672.28;4994420;28;20058;-64
2023/05/23 08:06:13;;;;;;;25.85;13.90;;;;;;;14.52;90.63;101679.56;4987012;28;20509;-65
2023/05/23 08:08:42;;;;;;;22.92;13.68;;;;;;;14.27;90.92;101679.38;5022611;28;20058;-65
2023/05/23 08:11:09;;;;;;;26.70;13.90;;;;;;;14.39;91.32;101682.41;4993618;28;20057;-65
2023/05/23 08:13:43;;;;;;;22.25;13.77;;;;;;;14.46;89.97;101686.38;4984736;28;20504;-68
2023/05/23 08:16:30;;;;;;;22.20;14.65;;;;;;;14.20;91.36;101693.66;4997609;28;20050;-63
2023/05/23 08:18:59;;;;;;;27.67;15.07;;;;;;;14.32;91.62;101696.72;5006734;28;20057;-64
2023/05/23 08:21:27;;;;;;;27.23;15.82;;;;;;;14.03;93.77;101690.75;5001103;28;20612;-64
2023/05/23 08:23:54;;;;;;;30.08;16.20;;;;;;;14.30;92.93;101684.28;4991294;28;20520;-64
2023/05/23 08:26:22;;;;;;;38.22;16.27;;;;;;;14.50;91.30;101690.16;4983672;28;20046;-64
2023/05/23 08:28:50;;;;;;;23.65;14.20;;;;;;;15.02;90.41;101687.66;5003300;28;20138;-63
2023/05/23 08:31:18;;;;;;;31.77;15.27;;;;;;;15.24;88.17;101682.88;5000870;28;20190;-64
2023/05/23 08:33:47;;;;;;;28.65;14.57;;;;;;;15.14;85.96;101694.25;4991110;28;21881;-65
2023/05/23 08:36:14;;;;;;;20.77;14.10;;;;;;;14.78;87.37;101690.00;5007598;28;20054;-64
2023/05/23 08:38:43;;;;;;;37.27;13.77;;;;;;;14.78;87.62;101692.78;5007206;28;20054;-65
2023/05/23 08:41:22;;;;;;;24.98;14.18;;;;;;;14.74;87.57;101700.09;5002339;28;20042;-67
2023/05/23 08:43:54;;;;;;;30.35;14.43;;;;;;;14.66;88.57;101687.81;4989573;28;20050;-66
2023/05/23 08:46:27;;;;;;;23.98;14.07;;;;;;;14.61;90.16;101694.31;5005678;28;20069;-64
2023/05/23 08:48:55;;;;;;;27.00;14.70;;;;;;;14.66;90.37;101698.91;4974048;28;20046;-66
2023/05/23 08:51:25;;;;;;;34.65;15.02;;;;;;;14.91;89.68;101697.41;4978067;28;20174;-65
2023/05/23 08:53:56;;;;;;;28.23;14.35;;;;;;;15.08;87.77;101701.06;4999404;28;20514;-65
2023/05/23 08:56:24;;;;;;;;;;;;;;;14.47;92.07;101699.09;5008449;28;20062;-64
2023/05/23 08:58:52;;;;;;;34.38;16.83;;;;;;;14.48;93.50;101702.69;4983487;28;19922;-65
2023/05/23 09:01:21;;;;;;;23.88;15.60;;;;;;;14.59;92.79;101690.22;4960235;28;20084;-64
2023/05/23 09:03:52;;;;;;;30.42;16.38;;;;;;;14.53;92.23;101697.03;5004276;28;20050;-64
2023/05/23 09:06:25;;;;;;;29.92;16.73;;;;;;;14.70;93.22;101696.31;4987969;28;20062;-65
2023/05/23 09:08:53;;;;;;;30.58;16.15;;;;;;;14.59;93.61;101698.53;4995604;28;20062;-64
2023/05/23 09:11:23;;;;;;;33.05;18.15;;;;;;;14.70;92.31;101715.75;4997726;28;20058;-63
2023/05/23 09:13:52;;;;;;;31.05;17.73;;;;;;;14.70;92.88;101707.41;5000049;28;20053;-63
2023/05/23 09:16:21;;;;;;;35.38;16.98;;;;;;;14.86;91.16;101711.41;4996687;28;20478;-64
2023/05/23 09:18:53;;;;;;;28.80;17.98;;;;;;;14.86;91.38;101709.47;4996549;28;20046;-63
2023/05/23 09:21:23;;;;;;;33.35;18.50;;;;;;;14.60;91.56;101706.53;4997067;28;20046;-63
2023/05/23 09:24:06;;;;;;;30.73;18.52;;;;;;;14.62;91.15;101715.38;4971486;28;20050;-64
2023/05/23 09:26:34;;;;;;;37.80;18.23;;;;;;;14.56;91.22;101708.28;5018300;28;20492;-64
2023/05/23 09:29:04;;;;;;;34.85;17.45;;;;;;;14.89;90.70;101708.03;4995474;28;20058;-64
2023/05/23 09:31:32;;;;;;;;;;;;;;;15.02;89.25;101707.09;5006327;28;20038;-64
2023/05/23 09:34:01;;;;;;;30.33;18.02;;;;;;;14.90;88.92;101715.19;4991767;28;19932;-65
2023/05/23 09:36:31;;;;;;;26.83;16.70;;;;;;;15.07;89.11;101706.94;4989118;28;20081;-65
2023/05/23 09:39:04;;;;;;;32.65;17.45;;;;;;;15.22;87.50;101703.78;4999871;28;20125;-65
2023/05/23 09:41:34;;;;;;;26.38;16.95;;;;;;;15.15;87.13;101718.09;5019869;28;20410;-65
2023/05/23 09:44:07;;;;;;;30.92;16.88;;;;;;;15.08;87.33;101712.19;4991267;28;20058;-66
2023/05/23 09:46:37;;;;;;;28.95;17.23;;;;;;;15.15;86.94;101709.75;4998363;28;20461;-65
2023/05/23 09:49:16;;;;;;;25.55;16.60;;;;;;;15.30;87.29;101703.81;4989477;28;20042;-68
2023/05/23 09:52:06;;;;;;;25.67;16.25;;;;;;;15.42;85.98;101712.38;4990349;28;20061;-65
2023/05/23 09:54:33;;;;;;;28.92;17.38;;;;;;;15.18;86.49;101724.97;4992105;28;20062;-65
2023/05/23 09:57:01;;;;;;;30.88;18.13;;;;;;;14.72;89.09;101713.44;4991289;28;20054;-66
2023/05/23 09:59:31;;;;;;;34.75;18.90;;;;;;;14.62;89.71;101723.69;4994859;28;20051;-65
2023/05/23 10:01:59;;;;;;;32.15;18.38;;;;;;;14.46;91.78;101721.59;5000489;28;20054;-65
2023/05/23 10:04:30;;;;;;;31.70;18.65;;;;;;;14.51;91.93;101721.47;4993043;28;20050;-66
2023/05/23 10:07:03;;;;;;;34.17;19.45;;;;;;;14.44;92.31;101723.84;4996125;28;20065;-66
2023/05/23 10:09:32;;;;;;;39.58;18.88;;;;;;;14.63;91.06;101727.25;5001854;28;20117;-68
2023/05/23 10:12:12;;;;;;;31.08;18.83;;;;;;;14.48;91.57;101727.66;4999656;28;20050;-65
2023/05/23 10:14:43;;;;;;;27.33;16.15;;;;;;;14.48;90.82;101720.16;4994089;28;20039;-66
2023/05/23 10:17:15;;;;;;;24.70;15.80;;;;;;;14.66;89.79;101721.91;4951974;28;20062;-64
2023/05/23 10:19:49;;;;;;;28.05;14.57;;;;;;;14.89;88.25;101719.91;4996758;28;20825;-66
2023/05/23 10:22:17;;;;;;;23.48;14.70;;;;;;;14.75;87.18;101723.94;4985502;28;20054;-65
2023/05/23 10:24:45;;;;;;;26.65;15.05;;;;;;;14.68;86.57;101721.56;5001949;28;20061;-66
2023/05/23 10:27:13;;;;;;;22.63;14.13;;;;;;;14.65;86.74;101725.81;5001079;28;20073;-65
2023/05/23 10:29:40;;;;;;;26.83;14.90;;;;;;;14.70;87.04;101721.28;4999120;28;20061;-66
2023/05/23 10:32:08;;;;;;;27.52;14.25;;;;;;;14.97;86.22;101715.56;4998381;28;20050;-68
2023/05/23 10:34:40;;;;;;;22.77;14.13;;;;;;;15.15;85.00;101725.63;5025480;28;20627;-64
2023/05/23 10:37:13;;;;;;;21.63;14.02;;;;;;;15.05;86.21;101726.69;5008780;28;20600;-66
2023/05/23 10:39:49;;;;;;;39.33;16.60;;;;;;;14.76;87.22;101731.91;4990589;28;20053;-66
2023/05/23 10:42:19;;;;;;;25.25;13.98;;;;;;;14.70;88.09;101732.38;4999956;28;20700;-66
2023/05/23 10:44:47;;;;;;;28.70;15.95;;;;;;;14.69;87.54;101731.56;5024095;28;20057;-64
2023/05/23 10:47:25;;;;;;;24.63;14.93;;;;;;;14.94;86.92;101724.53;4996552;28;20050;-66
2023/05/23 10:49:54;;;;;;;26.55;14.38;;;;;;;14.92;86.17;101724.03;5013670;28;20057;-66
2023/05/23 10:52:25;;;;;;;24.10;14.73;;;;;;;14.96;86.49;101728.59;4982250;28;20050;-64
2023/05/23 10:54:55;;;;;;;25.23;15.15;;;;;;;15.07;85.37;101726.38;4999555;28;20050;-65
2023/05/23 10:57:27;;;;;;;23.80;13.98;;;;;;;15.18;86.03;101724.97;4994920;28;20050;-66
2023/05/23 10:59:55;;;;;;;25.48;14.65;;;;;;;14.95;85.31;101721.44;4994060;28;20065;-66
2023/05/23 11:02:27;;;;;;;26.02;14.10;;;;;;;15.12;84.87;101713.19;5002116;28;20056;-66
2023/05/23 11:05:18;;;;;;;23.83;14.32;;;;;;;15.33;82.87;101714.25;4997465;28;20054;-66
2023/05/23 11:07:45;;;;;;;23.15;14.48;;;;;;;15.28;81.58;101706.06;4996267;28;20050;-66
2023/05/23 11:10:14;;;;;;;22.63;14.27;;;;;;;15.20;81.65;101709.63;5024576;28;20064;-65
2023/05/23 11:12:42;;;;;;;21.60;14.30;;;;;;;15.31;83.13;101710.97;5023988;28;21756;-65
2023/05/23 11:15:17;;;;;;;;;;;;;;;15.39;81.62;101712.16;5014256;28;20045;-64
2023/05/23 11:17:56;;;;;;;27.45;15.15;;;;;;;15.16;81.66;101716.97;5014899;28;19925;-64
2023/05/23 11:20:26;;;;;;;24.17;16.52;;;;;;;15.06;81.83;101730.28;5013056;28;20596;-65
2023/05/23 11:22:59;;;;;;;39.97;23.75;;;;;;;15.18;81.61;101711.91;5005345;28;20061;-66